sensor_id;sensor_type;location;lat;lon;timestamp;temperature;humidity
45619;DHT22;31343;47.520;19.144;2024-01-30T00:01:54;-0.40;99.90
45619;DHT22;31343;47.520;19.144;2024-01-30T00:04:19;-0.50;99.90
45619;DHT22;31343;47.520;19.144;2024-01-30T00:06:45;-0.50;99.90
45619;DHT22;31343;47.520;19.144;2024-01-30T00:09:11;-0.50;99.90
45619;DHT22;31343;47.520;19.144;2024-01-30T00:11:37;-0.50;99.90
45619;DHT22;31343;47.520;19.144;2024-01-30T00:14:06;-0.50;99.90
45619;DHT22;31343;47.520;19.144;2024-01-30T00:16:32;-0.60;99.90
45619;DHT22;31343;47.520;19.144;2024-01-30T00:18:57;-0.60;99.90
45619;DHT22;31343;47.520;19.144;2024-01-30T00:21:24;-0.60;99.90
45619;DHT22;31343;47.520;19.144;2024-01-30T00:23:50;-0.60;99.90
45619;DHT22;31343;47.520;19.144;2024-01-30T00:26:16;-0.60;99.90
45619;DHT22;31343;47.520;19.144;2024-01-30T00:28:42;-0.60;99.90
45619;DHT22;31343;47.520;19.144;2024-01-30T00:31:07;-0.60;99.90
45619;DHT22;31343;47.520;19.144;2024-01-30T00:33:34;-0.70;99.90
45619;DHT22;31343;47.520;19.144;2024-01-30T00:36:00;-0.70;99.90
45619;DHT22;31343;47.520;19.144;2024-01-30T00:38:25;-0.70;99.90
45619;DHT22;31343;47.520;19.144;2024-01-30T00:40:51;-0.70;99.90
45619;DHT22;31343;47.520;19.144;2024-01-30T00:43:16;-0.80;99.90
45619;DHT22;31343;47.520;19.144;2024-01-30T00:45:45;-0.80;99.90
45619;DHT22;31343;47.520;19.144;2024-01-30T00:48:11;-0.80;99.90
45619;DHT22;31343;47.520;19.144;2024-01-30T00:50:36;-0.80;99.90
45619;DHT22;31343;47.520;19.144;2024-01-30T00:53:02;-0.90;99.90
45619;DHT22;31343;47.520;19.144;2024-01-30T00:55:28;-0.90;99.90
45619;DHT22;31343;47.520;19.144;2024-01-30T00:57:53;-0.90;99.90
45619;DHT22;31343;47.520;19.144;2024-01-30T01:00:19;-0.90;99.90
45619;DHT22;31343;47.520;19.144;2024-01-30T01:02:46;-0.90;99.90
45619;DHT22;31343;47.520;19.144;2024-01-30T01:05:12;-0.90;99.90
45619;DHT22;31343;47.520;19.144;2024-01-30T01:07:39;-0.90;99.90
45619;DHT22;31343;47.520;19.144;2024-01-30T01:10:06;-0.90;99.90
45619;DHT22;31343;47.520;19.144;2024-01-30T01:12:32;-0.90;99.90
45619;DHT22;31343;47.520;19.144;2024-01-30T01:14:57;-0.90;99.90
45619;DHT22;31343;47.520;19.144;2024-01-30T01:17:23;-0.90;99.90
45619;DHT22;31343;47.520;19.144;2024-01-30T01:19:48;-0.90;99.90
45619;DHT22;31343;47.520;19.144;2024-01-30T01:22:15;-1.00;99.90
45619;DHT22;31343;47.520;19.144;2024-01-30T01:24:41;-0.90;99.90
45619;DHT22;31343;47.520;19.144;2024-01-30T01:27:06;-0.90;99.90
45619;DHT22;31343;47.520;19.144;2024-01-30T01:29:32;-1.00;99.90
45619;DHT22;31343;47.520;19.144;2024-01-30T01:31:58;-0.90;99.90
45619;DHT22;31343;47.520;19.144;2024-01-30T01:34:24;-1.00;99.90
45619;DHT22;31343;47.520;19.144;2024-01-30T01:36:50;-1.10;99.90
45619;DHT22;31343;47.520;19.144;2024-01-30T01:39:17;-1.10;99.90
45619;DHT22;31343;47.520;19.144;2024-01-30T01:41:42;-1.10;99.90
45619;DHT22;31343;47.520;19.144;2024-01-30T01:44:08;-1.10;99.90
45619;DHT22;31343;47.520;19.144;2024-01-30T01:46:34;-1.10;99.90
45619;DHT22;31343;47.520;19.144;2024-01-30T01:49:02;-1.20;99.90
45619;DHT22;31343;47.520;19.144;2024-01-30T01:51:29;-1.20;99.90
45619;DHT22;31343;47.520;19.144;2024-01-30T01:53:57;-1.20;99.90
45619;DHT22;31343;47.520;19.144;2024-01-30T01:56:24;-1.10;99.90
45619;DHT22;31343;47.520;19.144;2024-01-30T01:58:51;-1.10;99.90
45619;DHT22;31343;47.520;19.144;2024-01-30T02:01:21;-1.10;99.90
45619;DHT22;31343;47.520;19.144;2024-01-30T02:03:47;-1.10;99.90
45619;DHT22;31343;47.520;19.144;2024-01-30T02:06:16;-1.10;99.90
45619;DHT22;31343;47.520;19.144;2024-01-30T02:08:42;-1.10;99.90
45619;DHT22;31343;47.520;19.144;2024-01-30T02:11:08;-1.20;99.90
45619;DHT22;31343;47.520;19.144;2024-01-30T02:13:35;-1.30;99.90
45619;DHT22;31343;47.520;19.144;2024-01-30T02:16:01;-1.30;99.90
45619;DHT22;31343;47.520;19.144;2024-01-30T02:18:27;-1.30;99.90
45619;DHT22;31343;47.520;19.144;2024-01-30T02:20:54;-1.30;99.90
45619;DHT22;31343;47.520;19.144;2024-01-30T02:23:24;-1.30;99.90
45619;DHT22;31343;47.520;19.144;2024-01-30T02:25:53;-1.40;99.90
45619;DHT22;31343;47.520;19.144;2024-01-30T02:28:19;-1.40;99.90
45619;DHT22;31343;47.520;19.144;2024-01-30T02:30:46;-1.40;99.90
45619;DHT22;31343;47.520;19.144;2024-01-30T02:33:12;-1.40;99.90
45619;DHT22;31343;47.520;19.144;2024-01-30T02:35:38;-1.50;99.90
45619;DHT22;31343;47.520;19.144;2024-01-30T02:38:04;-1.50;99.90
45619;DHT22;31343;47.520;19.144;2024-01-30T02:40:30;-1.50;99.90
45619;DHT22;31343;47.520;19.144;2024-01-30T02:42:56;-1.50;99.90
45619;DHT22;31343;47.520;19.144;2024-01-30T02:45:22;-1.50;99.90
45619;DHT22;31343;47.520;19.144;2024-01-30T02:47:48;-1.50;99.90
45619;DHT22;31343;47.520;19.144;2024-01-30T02:50:14;-1.40;99.90
45619;DHT22;31343;47.520;19.144;2024-01-30T02:52:40;-1.50;99.90
45619;DHT22;31343;47.520;19.144;2024-01-30T02:55:06;-1.60;99.90
45619;DHT22;31343;47.520;19.144;2024-01-30T02:57:32;-1.60;99.90
45619;DHT22;31343;47.520;19.144;2024-01-30T02:59:58;-1.50;99.90
45619;DHT22;31343;47.520;19.144;2024-01-30T03:02:23;-1.60;99.90
45619;DHT22;31343;47.520;19.144;2024-01-30T03:04:49;-1.60;99.90
45619;DHT22;31343;47.520;19.144;2024-01-30T03:07:15;-1.60;99.90
45619;DHT22;31343;47.520;19.144;2024-01-30T03:09:41;-1.60;99.90
45619;DHT22;31343;47.520;19.144;2024-01-30T03:12:09;-1.60;99.90
45619;DHT22;31343;47.520;19.144;2024-01-30T03:14:34;-1.60;99.90
45619;DHT22;31343;47.520;19.144;2024-01-30T03:17:00;-1.50;99.90
45619;DHT22;31343;47.520;19.144;2024-01-30T03:19:26;-1.60;99.90
45619;DHT22;31343;47.520;19.144;2024-01-30T03:21:52;-1.60;99.90
45619;DHT22;31343;47.520;19.144;2024-01-30T03:24:18;-1.50;99.90
45619;DHT22;31343;47.520;19.144;2024-01-30T03:26:43;-1.60;99.90
45619;DHT22;31343;47.520;19.144;2024-01-30T03:29:09;-1.60;99.90
45619;DHT22;31343;47.520;19.144;2024-01-30T03:31:35;-1.60;99.90
45619;DHT22;31343;47.520;19.144;2024-01-30T03:34:01;-1.60;99.90
45619;DHT22;31343;47.520;19.144;2024-01-30T03:36:27;-1.60;99.90
45619;DHT22;31343;47.520;19.144;2024-01-30T03:38:53;-1.70;99.90
45619;DHT22;31343;47.520;19.144;2024-01-30T03:41:19;-1.90;99.90
45619;DHT22;31343;47.520;19.144;2024-01-30T03:43:45;-1.90;99.90
45619;DHT22;31343;47.520;19.144;2024-01-30T03:46:12;-1.90;99.90
45619;DHT22;31343;47.520;19.144;2024-01-30T03:48:38;-1.90;99.90
45619;DHT22;31343;47.520;19.144;2024-01-30T03:51:05;-1.90;99.90
45619;DHT22;31343;47.520;19.144;2024-01-30T03:53:31;-1.90;99.90
45619;DHT22;31343;47.520;19.144;2024-01-30T03:55:56;-1.90;99.90
45619;DHT22;31343;47.520;19.144;2024-01-30T03:58:22;-1.90;99.90
45619;DHT22;31343;47.520;19.144;2024-01-30T04:00:48;-1.90;99.90
45619;DHT22;31343;47.520;19.144;2024-01-30T04:03:17;-1.90;99.90
45619;DHT22;31343;47.520;19.144;2024-01-30T04:05:43;-1.90;99.90
45619;DHT22;31343;47.520;19.144;2024-01-30T04:08:09;-1.80;99.90
45619;DHT22;31343;47.520;19.144;2024-01-30T04:10:34;-1.90;99.90
45619;DHT22;31343;47.520;19.144;2024-01-30T04:13:00;-1.90;99.90
45619;DHT22;31343;47.520;19.144;2024-01-30T04:15:26;-1.90;99.90
45619;DHT22;31343;47.520;19.144;2024-01-30T04:17:53;-2.00;99.90
45619;DHT22;31343;47.520;19.144;2024-01-30T04:20:19;-2.10;99.90
45619;DHT22;31343;47.520;19.144;2024-01-30T04:22:45;-2.00;99.90
45619;DHT22;31343;47.520;19.144;2024-01-30T04:25:14;-2.10;99.90
45619;DHT22;31343;47.520;19.144;2024-01-30T04:27:40;-2.00;99.90
45619;DHT22;31343;47.520;19.144;2024-01-30T04:30:07;-2.10;99.90
45619;DHT22;31343;47.520;19.144;2024-01-30T04:32:32;-2.00;99.90
45619;DHT22;31343;47.520;19.144;2024-01-30T04:34:58;-2.10;99.90
45619;DHT22;31343;47.520;19.144;2024-01-30T04:37:24;-2.00;99.90
45619;DHT22;31343;47.520;19.144;2024-01-30T04:39:50;-2.10;99.90
45619;DHT22;31343;47.520;19.144;2024-01-30T04:42:17;-2.10;99.90
45619;DHT22;31343;47.520;19.144;2024-01-30T04:44:43;-2.10;99.90
45619;DHT22;31343;47.520;19.144;2024-01-30T04:47:09;-2.10;99.90
45619;DHT22;31343;47.520;19.144;2024-01-30T04:49:36;-2.10;99.90
45619;DHT22;31343;47.520;19.144;2024-01-30T04:52:02;-2.10;99.90
45619;DHT22;31343;47.520;19.144;2024-01-30T04:54:28;-2.10;99.90
45619;DHT22;31343;47.520;19.144;2024-01-30T04:56:53;-2.10;99.90
45619;DHT22;31343;47.520;19.144;2024-01-30T04:59:19;-2.10;99.90
45619;DHT22;31343;47.520;19.144;2024-01-30T05:01:45;-2.10;99.90
45619;DHT22;31343;47.520;19.144;2024-01-30T05:04:10;-2.10;99.90
45619;DHT22;31343;47.520;19.144;2024-01-30T05:06:37;-2.10;99.90
45619;DHT22;31343;47.520;19.144;2024-01-30T05:09:03;-2.10;99.90
45619;DHT22;31343;47.520;19.144;2024-01-30T05:11:31;-2.10;99.90
45619;DHT22;31343;47.520;19.144;2024-01-30T05:14:01;-2.10;99.90
45619;DHT22;31343;47.520;19.144;2024-01-30T05:16:27;-2.20;99.90
45619;DHT22;31343;47.520;19.144;2024-01-30T05:18:53;-2.20;99.90
45619;DHT22;31343;47.520;19.144;2024-01-30T05:21:19;-2.20;99.90
45619;DHT22;31343;47.520;19.144;2024-01-30T05:23:44;-2.20;99.90
45619;DHT22;31343;47.520;19.144;2024-01-30T05:26:10;-2.20;99.90
45619;DHT22;31343;47.520;19.144;2024-01-30T05:28:36;-2.20;99.90
45619;DHT22;31343;47.520;19.144;2024-01-30T05:31:01;-2.20;99.90
45619;DHT22;31343;47.520;19.144;2024-01-30T05:33:27;-2.20;99.90
45619;DHT22;31343;47.520;19.144;2024-01-30T05:35:53;-2.30;99.90
45619;DHT22;31343;47.520;19.144;2024-01-30T05:38:20;-2.30;99.90
45619;DHT22;31343;47.520;19.144;2024-01-30T05:40:46;-2.30;99.90
45619;DHT22;31343;47.520;19.144;2024-01-30T05:43:12;-2.50;99.90
45619;DHT22;31343;47.520;19.144;2024-01-30T05:45:37;-2.50;99.90
45619;DHT22;31343;47.520;19.144;2024-01-30T05:48:04;-2.50;99.90
45619;DHT22;31343;47.520;19.144;2024-01-30T05:50:30;-2.50;99.90
45619;DHT22;31343;47.520;19.144;2024-01-30T05:52:55;-2.60;99.90
45619;DHT22;31343;47.520;19.144;2024-01-30T05:55:21;-2.60;99.90
45619;DHT22;31343;47.520;19.144;2024-01-30T05:57:47;-2.60;99.90
45619;DHT22;31343;47.520;19.144;2024-01-30T06:00:13;-2.50;99.90
45619;DHT22;31343;47.520;19.144;2024-01-30T06:02:39;-2.50;99.90
45619;DHT22;31343;47.520;19.144;2024-01-30T06:05:04;-2.50;99.90
45619;DHT22;31343;47.520;19.144;2024-01-30T06:07:31;-2.50;99.90
45619;DHT22;31343;47.520;19.144;2024-01-30T06:09:57;-2.50;99.90
45619;DHT22;31343;47.520;19.144;2024-01-30T06:12:22;-2.50;99.90
45619;DHT22;31343;47.520;19.144;2024-01-30T06:14:48;-2.50;99.90
45619;DHT22;31343;47.520;19.144;2024-01-30T06:17:14;-2.50;99.90
45619;DHT22;31343;47.520;19.144;2024-01-30T06:19:39;-2.50;99.90
45619;DHT22;31343;47.520;19.144;2024-01-30T06:22:05;-2.50;99.90
45619;DHT22;31343;47.520;19.144;2024-01-30T06:24:31;-2.40;99.90
45619;DHT22;31343;47.520;19.144;2024-01-30T06:26:57;-2.50;99.90
45619;DHT22;31343;47.520;19.144;2024-01-30T06:29:22;-2.50;99.90
45619;DHT22;31343;47.520;19.144;2024-01-30T06:31:50;-2.40;99.90
45619;DHT22;31343;47.520;19.144;2024-01-30T06:34:16;-2.40;99.90
45619;DHT22;31343;47.520;19.144;2024-01-30T06:36:42;-2.40;99.90
45619;DHT22;31343;47.520;19.144;2024-01-30T06:39:07;-2.40;99.90
45619;DHT22;31343;47.520;19.144;2024-01-30T06:41:33;-2.30;99.90
45619;DHT22;31343;47.520;19.144;2024-01-30T06:44:02;-2.10;99.90
45619;DHT22;31343;47.520;19.144;2024-01-30T06:46:30;-1.90;99.90
45619;DHT22;31343;47.520;19.144;2024-01-30T06:48:58;-1.60;99.90
45619;DHT22;31343;47.520;19.144;2024-01-30T06:51:23;-1.10;99.90
45619;DHT22;31343;47.520;19.144;2024-01-30T06:53:49;-0.40;99.90
45619;DHT22;31343;47.520;19.144;2024-01-30T06:56:15;0.00;99.90
45619;DHT22;31343;47.520;19.144;2024-01-30T06:58:42;0.40;99.90
45619;DHT22;31343;47.520;19.144;2024-01-30T07:01:07;0.50;99.90
45619;DHT22;31343;47.520;19.144;2024-01-30T07:03:33;0.60;99.90
45619;DHT22;31343;47.520;19.144;2024-01-30T07:05:59;1.10;99.90
45619;DHT22;31343;47.520;19.144;2024-01-30T07:08:25;1.30;99.90
45619;DHT22;31343;47.520;19.144;2024-01-30T07:10:50;1.90;99.90
45619;DHT22;31343;47.520;19.144;2024-01-30T07:13:20;2.00;99.90
45619;DHT22;31343;47.520;19.144;2024-01-30T07:15:46;1.60;99.90
45619;DHT22;31343;47.520;19.144;2024-01-30T07:18:11;2.00;99.90
45619;DHT22;31343;47.520;19.144;2024-01-30T07:20:39;1.70;99.90
45619;DHT22;31343;47.520;19.144;2024-01-30T07:23:12;2.00;99.90
45619;DHT22;31343;47.520;19.144;2024-01-30T07:25:42;2.10;99.90
45619;DHT22;31343;47.520;19.144;2024-01-30T07:28:08;2.20;99.90
45619;DHT22;31343;47.520;19.144;2024-01-30T07:30:39;2.10;99.90
45619;DHT22;31343;47.520;19.144;2024-01-30T07:33:05;2.10;99.90
45619;DHT22;31343;47.520;19.144;2024-01-30T07:35:30;2.30;99.90
45619;DHT22;31343;47.520;19.144;2024-01-30T07:37:57;2.40;99.90
45619;DHT22;31343;47.520;19.144;2024-01-30T07:40:23;2.30;99.90
45619;DHT22;31343;47.520;19.144;2024-01-30T07:42:49;2.20;99.90
45619;DHT22;31343;47.520;19.144;2024-01-30T07:45:15;2.20;99.90
45619;DHT22;31343;47.520;19.144;2024-01-30T07:47:40;2.10;99.90
45619;DHT22;31343;47.520;19.144;2024-01-30T07:50:08;2.10;99.90
45619;DHT22;31343;47.520;19.144;2024-01-30T07:52:34;1.60;99.90
45619;DHT22;31343;47.520;19.144;2024-01-30T07:54:59;1.60;99.90
45619;DHT22;31343;47.520;19.144;2024-01-30T07:57:25;2.00;99.90
45619;DHT22;31343;47.520;19.144;2024-01-30T07:59:51;1.50;99.90
45619;DHT22;31343;47.520;19.144;2024-01-30T08:02:16;1.40;99.90
45619;DHT22;31343;47.520;19.144;2024-01-30T08:04:42;1.80;99.90
45619;DHT22;31343;47.520;19.144;2024-01-30T08:07:08;1.60;99.90
45619;DHT22;31343;47.520;19.144;2024-01-30T08:12:18;1.70;99.90
45619;DHT22;31343;47.520;19.144;2024-01-30T08:14:43;1.80;99.90
45619;DHT22;31343;47.520;19.144;2024-01-30T08:17:09;1.80;99.90
45619;DHT22;31343;47.520;19.144;2024-01-30T08:19:35;2.00;99.90
45619;DHT22;31343;47.520;19.144;2024-01-30T08:22:00;2.10;99.90
45619;DHT22;31343;47.520;19.144;2024-01-30T08:24:26;2.20;99.90
45619;DHT22;31343;47.520;19.144;2024-01-30T08:26:51;2.30;99.90
45619;DHT22;31343;47.520;19.144;2024-01-30T08:29:17;2.40;99.90
45619;DHT22;31343;47.520;19.144;2024-01-30T08:31:43;2.40;99.90
45619;DHT22;31343;47.520;19.144;2024-01-30T08:34:09;2.40;99.90
45619;DHT22;31343;47.520;19.144;2024-01-30T08:36:36;2.50;99.90
45619;DHT22;31343;47.520;19.144;2024-01-30T08:39:02;2.80;99.90
45619;DHT22;31343;47.520;19.144;2024-01-30T08:41:28;2.90;99.90
45619;DHT22;31343;47.520;19.144;2024-01-30T08:43:54;3.10;99.90
45619;DHT22;31343;47.520;19.144;2024-01-30T08:46:20;3.30;99.90
45619;DHT22;31343;47.520;19.144;2024-01-30T08:48:46;3.60;99.90
45619;DHT22;31343;47.520;19.144;2024-01-30T08:51:13;3.80;99.90
45619;DHT22;31343;47.520;19.144;2024-01-30T08:53:39;3.90;99.90
45619;DHT22;31343;47.520;19.144;2024-01-30T08:56:06;4.10;99.90
45619;DHT22;31343;47.520;19.144;2024-01-30T08:58:32;4.20;99.90
45619;DHT22;31343;47.520;19.144;2024-01-30T09:00:58;4.00;99.90
45619;DHT22;31343;47.520;19.144;2024-01-30T09:03:24;3.40;99.90
45619;DHT22;31343;47.520;19.144;2024-01-30T09:05:50;3.30;99.90
45619;DHT22;31343;47.520;19.144;2024-01-30T09:08:15;3.40;99.90
45619;DHT22;31343;47.520;19.144;2024-01-30T09:10:41;3.70;99.90
45619;DHT22;31343;47.520;19.144;2024-01-30T09:13:07;3.90;99.90
45619;DHT22;31343;47.520;19.144;2024-01-30T09:15:33;4.30;99.90
45619;DHT22;31343;47.520;19.144;2024-01-30T09:17:59;4.40;99.90
45619;DHT22;31343;47.520;19.144;2024-01-30T09:20:25;4.60;99.90
45619;DHT22;31343;47.520;19.144;2024-01-30T09:22:50;4.70;99.90
45619;DHT22;31343;47.520;19.144;2024-01-30T09:25:16;4.20;99.90
45619;DHT22;31343;47.520;19.144;2024-01-30T09:27:44;4.40;99.90
45619;DHT22;31343;47.520;19.144;2024-01-30T09:30:10;4.50;99.90
45619;DHT22;31343;47.520;19.144;2024-01-30T09:32:35;4.70;99.90
45619;DHT22;31343;47.520;19.144;2024-01-30T09:35:01;4.70;99.90
45619;DHT22;31343;47.520;19.144;2024-01-30T09:37:27;4.70;99.90
45619;DHT22;31343;47.520;19.144;2024-01-30T09:39:53;4.20;99.90
45619;DHT22;31343;47.520;19.144;2024-01-30T09:42:33;4.30;99.90
45619;DHT22;31343;47.520;19.144;2024-01-30T09:45:03;4.40;99.90
45619;DHT22;31343;47.520;19.144;2024-01-30T09:47:43;4.40;99.90
45619;DHT22;31343;47.520;19.144;2024-01-30T09:50:10;4.60;99.90
45619;DHT22;31343;47.520;19.144;2024-01-30T09:52:37;4.80;99.90
45619;DHT22;31343;47.520;19.144;2024-01-30T09:55:06;4.80;99.90
45619;DHT22;31343;47.520;19.144;2024-01-30T09:57:32;4.90;99.90
45619;DHT22;31343;47.520;19.144;2024-01-30T09:59:57;4.90;99.90
45619;DHT22;31343;47.520;19.144;2024-01-30T10:02:23;5.00;99.90
45619;DHT22;31343;47.520;19.144;2024-01-30T10:04:51;5.10;99.90
45619;DHT22;31343;47.520;19.144;2024-01-30T10:07:18;5.20;99.90
45619;DHT22;31343;47.520;19.144;2024-01-30T10:09:44;5.00;99.90
45619;DHT22;31343;47.520;19.144;2024-01-30T10:12:10;5.00;99.90
45619;DHT22;31343;47.520;19.144;2024-01-30T10:14:39;5.00;99.90
45619;DHT22;31343;47.520;19.144;2024-01-30T10:17:07;4.60;99.90
45619;DHT22;31343;47.520;19.144;2024-01-30T10:19:33;4.60;99.90
45619;DHT22;31343;47.520;19.144;2024-01-30T10:22:00;4.50;99.90
45619;DHT22;31343;47.520;19.144;2024-01-30T10:24:28;4.80;99.90
45619;DHT22;31343;47.520;19.144;2024-01-30T10:26:57;4.90;99.90
45619;DHT22;31343;47.520;19.144;2024-01-30T10:29:24;5.10;99.90
45619;DHT22;31343;47.520;19.144;2024-01-30T10:32:00;4.90;99.90
45619;DHT22;31343;47.520;19.144;2024-01-30T10:34:26;4.90;99.90
45619;DHT22;31343;47.520;19.144;2024-01-30T10:37:07;4.90;99.90
45619;DHT22;31343;47.520;19.144;2024-01-30T10:39:38;5.10;99.90
45619;DHT22;31343;47.520;19.144;2024-01-30T10:42:05;5.40;99.90
45619;DHT22;31343;47.520;19.144;2024-01-30T10:47:18;5.90;99.90
45619;DHT22;31343;47.520;19.144;2024-01-30T10:49:47;5.90;99.90
45619;DHT22;31343;47.520;19.144;2024-01-30T10:52:13;5.80;99.90
45619;DHT22;31343;47.520;19.144;2024-01-30T10:54:40;5.80;99.90
45619;DHT22;31343;47.520;19.144;2024-01-30T10:57:12;5.90;99.90
45619;DHT22;31343;47.520;19.144;2024-01-30T10:59:38;5.90;99.90
45619;DHT22;31343;47.520;19.144;2024-01-30T11:02:05;5.80;99.90
45619;DHT22;31343;47.520;19.144;2024-01-30T11:04:38;5.90;99.90
45619;DHT22;31343;47.520;19.144;2024-01-30T11:07:17;5.70;99.90
45619;DHT22;31343;47.520;19.144;2024-01-30T11:12:27;5.80;99.90
45619;DHT22;31343;47.520;19.144;2024-01-30T11:15:10;5.60;99.90
45619;DHT22;31343;47.520;19.144;2024-01-30T11:17:47;5.80;99.90
45619;DHT22;31343;47.520;19.144;2024-01-30T11:20:19;6.00;99.90
45619;DHT22;31343;47.520;19.144;2024-01-30T11:22:46;6.00;99.90
45619;DHT22;31343;47.520;19.144;2024-01-30T11:25:16;6.10;99.90
45619;DHT22;31343;47.520;19.144;2024-01-30T11:27:43;6.10;99.90
45619;DHT22;31343;47.520;19.144;2024-01-30T11:30:09;6.20;99.90
45619;DHT22;31343;47.520;19.144;2024-01-30T11:32:35;6.40;99.90
45619;DHT22;31343;47.520;19.144;2024-01-30T11:35:04;6.30;99.90
45619;DHT22;31343;47.520;19.144;2024-01-30T11:37:37;6.40;99.90
45619;DHT22;31343;47.520;19.144;2024-01-30T11:40:04;6.50;99.90
45619;DHT22;31343;47.520;19.144;2024-01-30T11:42:30;6.50;99.90
45619;DHT22;31343;47.520;19.144;2024-01-30T11:45:00;6.70;99.90
45619;DHT22;31343;47.520;19.144;2024-01-30T11:47:26;7.30;99.90
45619;DHT22;31343;47.520;19.144;2024-01-30T11:49:52;8.10;99.90
45619;DHT22;31343;47.520;19.144;2024-01-30T11:52:18;8.30;99.90
45619;DHT22;31343;47.520;19.144;2024-01-30T11:54:43;8.30;99.90
45619;DHT22;31343;47.520;19.144;2024-01-30T11:57:09;8.00;99.90
45619;DHT22;31343;47.520;19.144;2024-01-30T11:59:35;8.00;99.90
45619;DHT22;31343;47.520;19.144;2024-01-30T12:02:01;8.50;99.90
45619;DHT22;31343;47.520;19.144;2024-01-30T12:04:30;8.60;99.80
45619;DHT22;31343;47.520;19.144;2024-01-30T12:06:56;8.30;99.90
45619;DHT22;31343;47.520;19.144;2024-01-30T12:09:22;8.70;99.80
45619;DHT22;31343;47.520;19.144;2024-01-30T12:11:48;9.20;98.90
45619;DHT22;31343;47.520;19.144;2024-01-30T12:14:17;9.30;97.90
45619;DHT22;31343;47.520;19.144;2024-01-30T12:16:48;9.30;99.20
45619;DHT22;31343;47.520;19.144;2024-01-30T12:19:22;9.30;98.10
45619;DHT22;31343;47.520;19.144;2024-01-30T12:21:56;9.00;97.70
45619;DHT22;31343;47.520;19.144;2024-01-30T12:24:27;8.80;98.60
45619;DHT22;31343;47.520;19.144;2024-01-30T12:26:57;8.30;99.20
45619;DHT22;31343;47.520;19.144;2024-01-30T12:29:23;8.00;99.90
45619;DHT22;31343;47.520;19.144;2024-01-30T12:31:53;8.30;99.90
45619;DHT22;31343;47.520;19.144;2024-01-30T12:34:19;8.50;99.00
45619;DHT22;31343;47.520;19.144;2024-01-30T12:36:47;8.40;99.50
45619;DHT22;31343;47.520;19.144;2024-01-30T12:39:14;8.60;98.90
45619;DHT22;31343;47.520;19.144;2024-01-30T12:41:40;8.70;98.30
45619;DHT22;31343;47.520;19.144;2024-01-30T12:44:06;9.10;97.70
45619;DHT22;31343;47.520;19.144;2024-01-30T12:46:34;9.20;96.70
45619;DHT22;31343;47.520;19.144;2024-01-30T12:49:00;9.60;96.90
45619;DHT22;31343;47.520;19.144;2024-01-30T12:51:26;9.80;96.00
45619;DHT22;31343;47.520;19.144;2024-01-30T12:53:51;10.00;96.00
45619;DHT22;31343;47.520;19.144;2024-01-30T12:56:17;10.20;94.40
45619;DHT22;31343;47.520;19.144;2024-01-30T12:58:43;10.30;94.50
45619;DHT22;31343;47.520;19.144;2024-01-30T13:01:09;10.00;94.40
45619;DHT22;31343;47.520;19.144;2024-01-30T13:03:35;10.20;94.50
45619;DHT22;31343;47.520;19.144;2024-01-30T13:06:01;9.60;96.00
45619;DHT22;31343;47.520;19.144;2024-01-30T13:08:27;9.90;95.60
45619;DHT22;31343;47.520;19.144;2024-01-30T13:10:53;9.90;95.40
45619;DHT22;31343;47.520;19.144;2024-01-30T13:13:19;10.20;95.10
45619;DHT22;31343;47.520;19.144;2024-01-30T13:15:44;10.80;93.80
45619;DHT22;31343;47.520;19.144;2024-01-30T13:18:10;10.90;92.80
45619;DHT22;31343;47.520;19.144;2024-01-30T13:20:36;10.30;92.50
45619;DHT22;31343;47.520;19.144;2024-01-30T13:23:01;9.60;93.40
45619;DHT22;31343;47.520;19.144;2024-01-30T13:25:27;9.30;94.20
45619;DHT22;31343;47.520;19.144;2024-01-30T13:27:53;9.50;94.00
45619;DHT22;31343;47.520;19.144;2024-01-30T13:30:18;9.60;94.10
45619;DHT22;31343;47.520;19.144;2024-01-30T13:32:45;9.60;92.70
45619;DHT22;31343;47.520;19.144;2024-01-30T13:35:11;9.40;92.70
45619;DHT22;31343;47.520;19.144;2024-01-30T13:37:37;8.90;93.00
45619;DHT22;31343;47.520;19.144;2024-01-30T13:40:05;8.60;93.50
45619;DHT22;31343;47.520;19.144;2024-01-30T13:42:32;8.70;93.80
45619;DHT22;31343;47.520;19.144;2024-01-30T13:44:58;9.10;93.20
45619;DHT22;31343;47.520;19.144;2024-01-30T13:47:24;8.90;92.90
45619;DHT22;31343;47.520;19.144;2024-01-30T13:49:50;8.60;93.70
45619;DHT22;31343;47.520;19.144;2024-01-30T13:52:18;8.70;94.10
45619;DHT22;31343;47.520;19.144;2024-01-30T13:54:43;8.80;94.10
45619;DHT22;31343;47.520;19.144;2024-01-30T13:57:09;9.20;93.20
45619;DHT22;31343;47.520;19.144;2024-01-30T13:59:35;9.30;92.10
45619;DHT22;31343;47.520;19.144;2024-01-30T14:02:01;9.00;92.90
45619;DHT22;31343;47.520;19.144;2024-01-30T14:04:26;9.30;92.50
45619;DHT22;31343;47.520;19.144;2024-01-30T14:06:52;9.70;92.60
45619;DHT22;31343;47.520;19.144;2024-01-30T14:09:18;9.60;91.80
45619;DHT22;31343;47.520;19.144;2024-01-30T14:11:43;9.30;92.40
45619;DHT22;31343;47.520;19.144;2024-01-30T14:14:09;8.60;93.00
45619;DHT22;31343;47.520;19.144;2024-01-30T14:16:35;8.70;93.30
45619;DHT22;31343;47.520;19.144;2024-01-30T14:19:01;8.90;92.90
45619;DHT22;31343;47.520;19.144;2024-01-30T14:21:26;8.50;92.70
45619;DHT22;31343;47.520;19.144;2024-01-30T14:23:52;8.10;93.00
45619;DHT22;31343;47.520;19.144;2024-01-30T14:26:18;8.00;93.10
45619;DHT22;31343;47.520;19.144;2024-01-30T14:28:43;7.50;93.60
45619;DHT22;31343;47.520;19.144;2024-01-30T14:31:11;7.30;94.10
45619;DHT22;31343;47.520;19.144;2024-01-30T14:33:37;7.10;94.60
45619;DHT22;31343;47.520;19.144;2024-01-30T14:36:03;6.90;95.40
45619;DHT22;31343;47.520;19.144;2024-01-30T14:38:29;6.80;95.00
45619;DHT22;31343;47.520;19.144;2024-01-30T14:40:54;6.80;95.20
45619;DHT22;31343;47.520;19.144;2024-01-30T14:43:20;6.70;95.40
45619;DHT22;31343;47.520;19.144;2024-01-30T14:45:45;6.60;95.50
45619;DHT22;31343;47.520;19.144;2024-01-30T14:48:14;6.50;95.60
45619;DHT22;31343;47.520;19.144;2024-01-30T14:50:40;6.40;95.40
45619;DHT22;31343;47.520;19.144;2024-01-30T14:53:06;6.30;95.30
45619;DHT22;31343;47.520;19.144;2024-01-30T14:55:32;6.30;95.20
45619;DHT22;31343;47.520;19.144;2024-01-30T14:57:59;6.20;95.60
45619;DHT22;31343;47.520;19.144;2024-01-30T15:00:25;6.20;95.70
45619;DHT22;31343;47.520;19.144;2024-01-30T15:02:50;6.20;95.90
45619;DHT22;31343;47.520;19.144;2024-01-30T15:05:16;6.10;96.00
45619;DHT22;31343;47.520;19.144;2024-01-30T15:07:42;6.10;96.40
45619;DHT22;31343;47.520;19.144;2024-01-30T15:10:08;6.10;96.30
45619;DHT22;31343;47.520;19.144;2024-01-30T15:12:35;6.20;96.80
45619;DHT22;31343;47.520;19.144;2024-01-30T15:15:01;6.30;96.80
45619;DHT22;31343;47.520;19.144;2024-01-30T15:17:27;6.20;96.10
45619;DHT22;31343;47.520;19.144;2024-01-30T15:19:52;6.10;96.20
45619;DHT22;31343;47.520;19.144;2024-01-30T15:22:18;6.00;96.70
45619;DHT22;31343;47.520;19.144;2024-01-30T15:24:44;6.00;96.80
45619;DHT22;31343;47.520;19.144;2024-01-30T15:27:09;6.00;96.70
45619;DHT22;31343;47.520;19.144;2024-01-30T15:29:35;6.00;97.10